createdAt,value
2022-11-15T00:00:56.762Z,97350.75
2022-11-15T00:03:28.307Z,97356.41
2022-11-15T00:05:55.152Z,97348.94
2022-11-15T00:08:21.612Z,97356.19
2022-11-15T00:11:03.005Z,97355.22
2022-11-15T00:13:30.834Z,97344.50
2022-11-15T00:15:59.167Z,97349.50
2022-11-15T00:18:26.087Z,97354.94
2022-11-15T00:20:52.688Z,97354.59
2022-11-15T00:23:21.407Z,97347.84
2022-11-15T00:25:47.864Z,97345.88
2022-11-15T00:28:14.330Z,97338.56
2022-11-15T00:30:43.029Z,97341.91
2022-11-15T00:33:10.571Z,97337.34
2022-11-15T00:35:37.098Z,97333.31
2022-11-15T00:38:04.047Z,97339.03
2022-11-15T00:40:30.945Z,97335.84
2022-11-15T00:42:58.248Z,97327.59
2022-11-15T00:45:27.979Z,97328.38
2022-11-15T00:47:54.397Z,97324.75
2022-11-15T00:50:20.846Z,97330.13
2022-11-15T00:52:47.293Z,97328.03
2022-11-15T00:55:18.146Z,97330.19
2022-11-15T00:57:45.145Z,97327.19
2022-11-15T01:00:12.297Z,97314.78
2022-11-15T01:02:38.810Z,97317.88
2022-11-15T01:05:05.737Z,97322.16
2022-11-15T01:07:32.610Z,97322.94
2022-11-15T01:09:59.077Z,97322.25
2022-11-15T01:12:25.583Z,97317.31
2022-11-15T01:14:52.005Z,97313.50
2022-11-15T01:17:18.521Z,97314.13
2022-11-15T01:19:47.425Z,97311.47
2022-11-15T01:22:13.883Z,97306.91
2022-11-15T01:24:40.373Z,97302.94
2022-11-15T01:27:06.818Z,97314.66
2022-11-15T01:29:33.832Z,97309.84
2022-11-15T01:32:00.301Z,97310.59
2022-11-15T01:34:28.900Z,97312.69
2022-11-15T01:36:55.323Z,97312.94
2022-11-15T01:39:21.833Z,97319.13
2022-11-15T01:41:48.263Z,97314.88
2022-11-15T01:44:49.976Z,97312.00
2022-11-15T01:47:20.465Z,97302.00
2022-11-15T01:49:58.351Z,97289.53
2022-11-15T01:52:27.034Z,97293.75
2022-11-15T01:55:02.757Z,97292.97
2022-11-15T01:57:29.373Z,97292.63
2022-11-15T01:59:56.875Z,97291.00
2022-11-15T02:02:23.331Z,97285.53
2022-11-15T02:04:49.832Z,97289.53
2022-11-15T02:07:19.440Z,97287.72
2022-11-15T02:09:46.829Z,97279.13
2022-11-15T02:12:17.906Z,97274.34
2022-11-15T02:14:49.139Z,97279.22
2022-11-15T02:17:34.188Z,97278.72
2022-11-15T02:20:12.860Z,97277.50
2022-11-15T02:23:03.735Z,97276.59
2022-11-15T02:26:19.408Z,97278.50
2022-11-15T02:28:56.977Z,97269.59
2022-11-15T02:31:26.465Z,97266.03
2022-11-15T02:34:30.654Z,97262.50
2022-11-15T02:37:29.291Z,97259.25
2022-11-15T02:40:01.963Z,97247.25
2022-11-15T02:42:53.387Z,97244.88
2022-11-15T02:45:28.792Z,97244.56
2022-11-15T02:47:57.587Z,97234.25
2022-11-15T02:50:29.093Z,97232.56
2022-11-15T02:52:58.869Z,97236.38
2022-11-15T02:55:34.382Z,97238.59
2022-11-15T02:58:16.017Z,97239.41
2022-11-15T03:00:55.277Z,97227.78
2022-11-15T03:03:32.174Z,97228.44
2022-11-15T03:06:01.598Z,97221.22
2022-11-15T03:08:46.017Z,97224.63
2022-11-15T03:11:16.330Z,97229.31
2022-11-15T03:14:27.223Z,97223.78
2022-11-15T03:17:11.774Z,97220.75
2022-11-15T03:19:58.410Z,97225.34
2022-11-15T03:22:29.585Z,97218.63
2022-11-15T03:25:00.529Z,97226.38
2022-11-15T03:27:33.505Z,97216.31
2022-11-15T03:30:04.641Z,97214.13
2022-11-15T03:32:37.474Z,97205.13
2022-11-15T03:35:09.568Z,97206.88
2022-11-15T03:37:50.228Z,97202.09
2022-11-15T03:40:18.448Z,97195.72
2022-11-15T03:42:56.325Z,97205.78
2022-11-15T03:45:55.648Z,97195.59
2022-11-15T03:48:28.811Z,97186.94
2022-11-15T03:50:56.542Z,97201.47
2022-11-15T03:53:23.206Z,97195.34
2022-11-15T03:55:52.024Z,97197.16
2022-11-15T03:58:18.476Z,97196.75
2022-11-15T04:00:44.959Z,97186.88
2022-11-15T04:03:11.372Z,97190.22
2022-11-15T04:05:37.840Z,97184.34
2022-11-15T04:08:04.520Z,97180.84
2022-11-15T04:10:30.977Z,97177.53
2022-11-15T04:12:57.454Z,97176.81
2022-11-15T04:15:24.613Z,97181.84
2022-11-15T04:17:53.304Z,97181.97
2022-11-15T04:20:44.459Z,97182.44
2022-11-15T04:23:37.472Z,97180.94
2022-11-15T04:26:19.201Z,97173.63
2022-11-15T04:29:04.357Z,97175.03
2022-11-15T04:31:30.835Z,97183.38
2022-11-15T04:33:57.458Z,97172.31
2022-11-15T04:36:43.067Z,97173.88
2022-11-15T04:39:09.639Z,97174.59
2022-11-15T04:41:36.187Z,97171.72
2022-11-15T04:44:02.621Z,97173.69
2022-11-15T04:46:29.217Z,97178.63
2022-11-15T04:48:58.954Z,97176.88
2022-11-15T04:51:28.590Z,97175.66
2022-11-15T04:53:54.974Z,97175.91
2022-11-15T04:56:23.734Z,97161.31
2022-11-15T04:58:50.641Z,97158.25
2022-11-15T05:01:17.652Z,97155.59
2022-11-15T05:04:03.731Z,97150.00
2022-11-15T05:06:30.704Z,97145.88
2022-11-15T05:08:59.994Z,97150.28
2022-11-15T05:11:28.174Z,97139.25
2022-11-15T05:13:54.942Z,97136.06
2022-11-15T05:16:21.431Z,97135.28
2022-11-15T05:18:48.044Z,97129.31
2022-11-15T05:21:15.718Z,97122.63
2022-11-15T05:23:42.382Z,97123.59
2022-11-15T05:26:09.864Z,97121.91
2022-11-15T05:28:37.475Z,97118.56
2022-11-15T05:31:04.021Z,97108.84
2022-11-15T05:33:31.611Z,97107.13
2022-11-15T05:36:06.066Z,97109.88
2022-11-15T05:38:32.725Z,97099.88
2022-11-15T05:41:03.647Z,97105.59
2022-11-15T05:43:34.369Z,97106.41
2022-11-15T05:46:02.377Z,97108.94
2022-11-15T05:48:28.917Z,97111.03
2022-11-15T05:50:56.259Z,97117.53
2022-11-15T05:53:26.887Z,97111.38
2022-11-15T05:55:53.310Z,97109.38
2022-11-15T05:58:22.806Z,97112.31
2022-11-15T06:00:49.512Z,97111.44
2022-11-15T06:03:15.986Z,97115.06
2022-11-15T06:05:42.420Z,97113.38
2022-11-15T06:08:08.893Z,97117.47
2022-11-15T06:10:35.297Z,97114.81
2022-11-15T06:13:05.751Z,97112.22
2022-11-15T06:15:34.574Z,97111.25
2022-11-15T06:18:01.735Z,97114.44
2022-11-15T06:20:29.580Z,97107.38
2022-11-15T06:23:00.129Z,97115.09
2022-11-15T06:25:27.718Z,97108.28
2022-11-15T06:27:56.077Z,97118.06
2022-11-15T06:30:23.895Z,97119.78
2022-11-15T06:32:50.469Z,97117.78
2022-11-15T06:35:17.515Z,97108.78
2022-11-15T06:37:44.423Z,97115.75
2022-11-15T06:40:11.818Z,97111.63
2022-11-15T06:42:38.345Z,97112.50
2022-11-15T06:45:08.671Z,97117.72
2022-11-15T06:50:04.301Z,97109.31
2022-11-15T06:52:33.488Z,97109.78
2022-11-15T06:54:59.951Z,97118.03
2022-11-15T06:57:26.363Z,97118.88
2022-11-15T06:59:55.536Z,97112.34
2022-11-15T07:02:22.000Z,97113.88
2022-11-15T07:04:48.462Z,97114.72
2022-11-15T07:07:15.056Z,97115.16
2022-11-15T07:09:41.561Z,97121.97
2022-11-15T07:12:10.457Z,97114.25
2022-11-15T07:14:36.980Z,97112.59
2022-11-15T07:17:06.930Z,97117.72
2022-11-15T07:19:35.966Z,97108.75
2022-11-15T07:22:02.505Z,97112.38
2022-11-15T07:24:29.321Z,97104.44
2022-11-15T07:26:58.451Z,97101.88
2022-11-15T07:29:24.953Z,97093.88
2022-11-15T07:31:51.665Z,97096.03
2022-11-15T07:34:18.189Z,97094.59
2022-11-15T07:36:44.774Z,97094.44
2022-11-15T07:39:13.155Z,97095.66
2022-11-15T07:41:40.045Z,97093.28
2022-11-15T07:44:06.528Z,97083.13
2022-11-15T07:46:33.476Z,97091.16
2022-11-15T07:48:59.909Z,97083.28
2022-11-15T07:51:26.348Z,97071.69
2022-11-15T07:53:55.310Z,97082.31
2022-11-15T07:56:21.835Z,97072.63
2022-11-15T07:58:48.311Z,97072.59
2022-11-15T08:01:14.902Z,97071.53
2022-11-15T08:03:41.519Z,97074.41
2022-11-15T08:06:08.280Z,97076.25
2022-11-15T08:08:34.857Z,97075.94
2022-11-15T08:11:01.684Z,97073.94
2022-11-15T08:13:28.683Z,97074.31
2022-11-15T08:16:00.387Z,97067.31
2022-11-15T08:18:27.095Z,97066.56
2022-11-15T08:20:53.609Z,97062.84
2022-11-15T08:23:20.229Z,97065.44
2022-11-15T08:25:46.899Z,97064.50
2022-11-15T08:28:13.378Z,97053.88
2022-11-15T08:30:43.052Z,97051.63
2022-11-15T08:33:16.985Z,97049.03
2022-11-15T08:35:44.952Z,97045.19
2022-11-15T08:38:12.027Z,97037.16
2022-11-15T08:40:38.901Z,97034.50
2022-11-15T08:43:07.621Z,97036.56
2022-11-15T08:45:36.128Z,97045.75
2022-11-15T08:48:03.690Z,97040.50
2022-11-15T08:50:30.192Z,97045.75
2022-11-15T08:52:56.669Z,97039.03
2022-11-15T08:55:24.789Z,97039.25
2022-11-15T08:57:51.613Z,97045.72
2022-11-15T09:00:18.335Z,97037.25
2022-11-15T09:02:44.804Z,97049.25
2022-11-15T09:05:11.443Z,97038.00
2022-11-15T09:07:37.993Z,97037.09
2022-11-15T09:10:05.105Z,97031.84
2022-11-15T09:12:31.670Z,97030.59
2022-11-15T09:15:00.387Z,97027.28
2022-11-15T09:17:26.927Z,97024.09
2022-11-15T09:19:53.380Z,97024.63
2022-11-15T09:22:19.891Z,97020.34
2022-11-15T09:24:46.345Z,97025.97
2022-11-15T09:27:14.330Z,97021.94
2022-11-15T09:29:40.862Z,97015.16
2022-11-15T09:32:09.954Z,97011.13
2022-11-15T09:34:36.401Z,97004.66
2022-11-15T09:37:02.843Z,97006.25
2022-11-15T09:39:32.256Z,96997.63
2022-11-15T09:42:11.585Z,96993.69
2022-11-15T09:44:40.920Z,96985.88
2022-11-15T09:47:39.341Z,96984.88
2022-11-15T09:50:26.903Z,96979.91
2022-11-15T09:52:53.329Z,96968.47
2022-11-15T09:55:40.237Z,96967.81
2022-11-15T09:58:26.020Z,96960.75
2022-11-15T10:00:53.886Z,96953.63
2022-11-15T10:03:35.636Z,96945.84
2022-11-15T10:06:05.078Z,96941.25
2022-11-15T10:08:36.915Z,96946.09
2022-11-15T10:14:00.569Z,96942.31
2022-11-15T10:16:39.556Z,96926.72
2022-11-15T10:19:25.107Z,96930.31
2022-11-15T10:22:37.750Z,96922.66
2022-11-15T10:25:04.173Z,96920.63
2022-11-15T10:27:30.795Z,96926.91
2022-11-15T10:30:00.252Z,96917.09
2022-11-15T10:32:26.707Z,96915.44
2022-11-15T10:34:53.388Z,96912.84
2022-11-15T10:37:33.575Z,96911.41
2022-11-15T10:40:15.589Z,96906.19
2022-11-15T10:42:42.051Z,96904.66
2022-11-15T10:45:28.918Z,96899.88
2022-11-15T10:48:12.841Z,96894.56
2022-11-15T10:50:41.396Z,96893.72
2022-11-15T10:53:32.676Z,96890.97
2022-11-15T10:56:06.350Z,96889.28
2022-11-15T10:58:39.946Z,96878.44
2022-11-15T11:01:23.805Z,96869.84
2022-11-15T11:04:08.590Z,96863.28
2022-11-15T11:06:54.646Z,96859.03
2022-11-15T11:09:43.315Z,96851.47
2022-11-15T11:12:13.256Z,96837.84
2022-11-15T11:14:40.420Z,96836.41
2022-11-15T11:17:12.064Z,96836.19
2022-11-15T11:19:53.732Z,96831.97
2022-11-15T11:22:26.651Z,96820.59
2022-11-15T11:25:11.490Z,96816.00
2022-11-15T11:28:01.174Z,96818.13
2022-11-15T11:30:53.836Z,96821.31
2022-11-15T11:33:32.703Z,96812.25
2022-11-15T11:36:03.189Z,96813.88
2022-11-15T11:38:40.908Z,96810.50
2022-11-15T11:41:45.744Z,96807.88
2022-11-15T11:44:30.107Z,96807.47
2022-11-15T11:47:07.700Z,96793.47
2022-11-15T11:49:44.151Z,96790.03
2022-11-15T11:52:30.327Z,96787.16
2022-11-15T11:55:06.791Z,96780.84
2022-11-15T11:57:56.097Z,96784.28
2022-11-15T12:00:23.807Z,96775.59
2022-11-15T12:03:06.452Z,96774.47
2022-11-15T12:05:40.987Z,96762.88
2022-11-15T12:08:40.008Z,96756.94
2022-11-15T12:11:12.044Z,96744.00
2022-11-15T12:13:39.609Z,96745.19
2022-11-15T12:16:17.246Z,96740.13
2022-11-15T12:18:55.647Z,96743.00
2022-11-15T12:21:31.277Z,96744.66
2022-11-15T12:24:05.314Z,96741.53
2022-11-15T12:26:38.769Z,96736.25
2022-11-15T12:29:17.886Z,96736.00
2022-11-15T12:31:52.229Z,96728.59
2022-11-15T12:34:18.644Z,96724.16
2022-11-15T12:36:45.595Z,96718.31
2022-11-15T12:39:16.308Z,96707.16
2022-11-15T12:41:44.059Z,96700.41
2022-11-15T12:44:33.959Z,96701.34
2022-11-15T12:47:00.356Z,96703.97
2022-11-15T12:49:26.817Z,96707.75
2022-11-15T12:51:59.161Z,96700.03
2022-11-15T12:54:25.632Z,96699.06
2022-11-15T12:57:15.450Z,96700.59
2022-11-15T13:00:02.402Z,96706.34
2022-11-15T13:02:36.936Z,96693.13
2022-11-15T13:05:21.176Z,96686.09
2022-11-15T13:07:47.690Z,96695.34
2022-11-15T13:10:14.331Z,96683.63
2022-11-15T13:12:46.960Z,96681.84
2022-11-15T13:15:13.485Z,96680.03
2022-11-15T13:17:47.029Z,96677.41
2022-11-15T13:20:16.213Z,96669.81
2022-11-15T13:22:53.483Z,96673.22
2022-11-15T13:25:54.050Z,96668.97
2022-11-15T13:28:32.840Z,96668.00
2022-11-15T13:31:02.179Z,96659.31
2022-11-15T13:33:40.322Z,96653.13
2022-11-15T13:36:24.311Z,96645.09
2022-11-15T13:39:07.674Z,96648.03
2022-11-15T13:41:36.625Z,96636.19
2022-11-15T13:44:21.677Z,96636.88
2022-11-15T13:46:48.280Z,96634.25
2022-11-15T13:49:15.468Z,96634.41
2022-11-15T13:51:54.608Z,96629.03
2022-11-15T13:54:32.264Z,96621.03
2022-11-15T13:57:01.932Z,96612.72
2022-11-15T13:59:55.777Z,96617.72
2022-11-15T14:02:36.122Z,96616.19
2022-11-15T14:05:28.992Z,96607.53
2022-11-15T14:08:02.480Z,96606.72
2022-11-15T14:10:38.480Z,96603.28
2022-11-15T14:13:12.867Z,96601.91
2022-11-15T14:15:43.340Z,96606.91
2022-11-15T14:18:43.555Z,96599.34
2022-11-15T14:21:10.236Z,96604.06
2022-11-15T14:23:36.920Z,96605.81
2022-11-15T14:26:10.278Z,96597.00
2022-11-15T14:28:40.311Z,96597.59
2022-11-15T14:31:13.748Z,96591.28
2022-11-15T14:33:40.623Z,96599.72
2022-11-15T14:36:13.729Z,96592.16
2022-11-15T14:38:43.932Z,96594.50
2022-11-15T14:41:19.996Z,96589.69
2022-11-15T14:43:48.914Z,96589.69
2022-11-15T14:46:15.534Z,96588.31
2022-11-15T14:48:44.652Z,96596.47
2022-11-15T14:51:16.802Z,96593.88
2022-11-15T14:53:44.584Z,96592.78
2022-11-15T14:56:14.191Z,96591.84
2022-11-15T14:58:40.753Z,96588.66
2022-11-15T15:01:26.089Z,96584.16
2022-11-15T15:03:56.827Z,96581.41
2022-11-15T15:06:23.859Z,96584.44
2022-11-15T15:08:55.252Z,96578.41
2022-11-15T15:11:23.174Z,96573.47
2022-11-15T15:13:49.921Z,96578.94
2022-11-15T15:16:16.433Z,96580.75
2022-11-15T15:18:43.031Z,96577.59
2022-11-15T15:21:23.468Z,96573.75
2022-11-15T15:23:55.107Z,96576.38
2022-11-15T15:26:23.586Z,96573.88
2022-11-15T15:28:52.115Z,96580.47
2022-11-15T15:31:19.264Z,96574.00
2022-11-15T15:33:48.065Z,96575.22
2022-11-15T15:36:18.400Z,96574.94
2022-11-15T15:38:47.497Z,96565.31
2022-11-15T15:41:16.262Z,96566.00
2022-11-15T15:43:43.842Z,96565.28
2022-11-15T15:46:15.939Z,96568.03
2022-11-15T15:48:42.817Z,96558.50
2022-11-15T15:51:17.008Z,96559.16
2022-11-15T15:53:46.743Z,96559.84
2022-11-15T15:56:13.323Z,96557.84
2022-11-15T15:58:39.940Z,96560.63
2022-11-15T16:01:06.689Z,96559.66
2022-11-15T16:03:34.465Z,96559.09
2022-11-15T16:06:05.260Z,96557.13
2022-11-15T16:08:47.699Z,96557.84
2022-11-15T16:11:21.004Z,96556.06
2022-11-15T16:13:50.153Z,96550.09
2022-11-15T16:16:16.877Z,96551.75
2022-11-15T16:18:43.481Z,96552.31
2022-11-15T16:21:10.055Z,96552.47
2022-11-15T16:23:36.648Z,96551.81
2022-11-15T16:26:05.794Z,96553.47
2022-11-15T16:28:34.283Z,96553.78
2022-11-15T16:31:11.464Z,96553.53
2022-11-15T16:33:38.834Z,96550.09
2022-11-15T16:36:09.624Z,96556.63
2022-11-15T16:38:37.010Z,96552.63
2022-11-15T16:41:03.702Z,96552.22
2022-11-15T16:43:32.505Z,96551.19
2022-11-15T16:45:59.054Z,96542.53
2022-11-15T16:48:28.859Z,96549.84
2022-11-15T16:50:57.393Z,96550.38
2022-11-15T16:53:27.231Z,96546.84
2022-11-15T16:55:55.142Z,96555.38
2022-11-15T16:58:22.280Z,96554.78
2022-11-15T17:00:55.732Z,96546.41
2022-11-15T17:03:24.000Z,96554.41
2022-11-15T17:05:51.067Z,96555.84
2022-11-15T17:08:21.988Z,96553.38
2022-11-15T17:10:48.880Z,96553.72
2022-11-15T17:13:15.515Z,96553.47
2022-11-15T17:15:42.468Z,96559.38
2022-11-15T17:18:13.174Z,96548.63
2022-11-15T17:20:41.506Z,96554.31
2022-11-15T17:23:14.606Z,96567.19
2022-11-15T17:25:41.714Z,96571.03
2022-11-15T17:28:08.339Z,96569.75
2022-11-15T17:30:35.774Z,96568.09
2022-11-15T17:33:02.562Z,96568.25
2022-11-15T17:35:29.150Z,96568.84
2022-11-15T17:37:57.911Z,96577.13
2022-11-15T17:40:24.481Z,96569.97
2022-11-15T17:42:51.018Z,96572.38
2022-11-15T17:45:17.781Z,96571.25
2022-11-15T17:47:46.845Z,96573.53
2022-11-15T17:50:13.480Z,96577.75
2022-11-15T17:52:40.025Z,96579.41
2022-11-15T17:55:06.881Z,96576.91
2022-11-15T17:57:35.713Z,96586.03
2022-11-15T18:00:06.345Z,96585.50
2022-11-15T18:02:33.101Z,96581.03
2022-11-15T18:05:03.318Z,96581.06
2022-11-15T18:07:30.041Z,96576.84
2022-11-15T18:09:58.986Z,96574.59
2022-11-15T18:12:25.690Z,96577.91
2022-11-15T18:14:52.242Z,96575.81
2022-11-15T18:17:19.092Z,96578.16
2022-11-15T18:19:48.718Z,96573.38
2022-11-15T18:22:15.442Z,96576.72
2022-11-15T18:24:43.799Z,96578.78
2022-11-15T18:27:10.426Z,96567.69
2022-11-15T18:29:39.182Z,96569.34
2022-11-15T18:32:11.638Z,96570.25
2022-11-15T18:34:38.709Z,96574.59
2022-11-15T18:37:05.352Z,96569.53
2022-11-15T18:39:32.135Z,96563.09
2022-11-15T18:41:59.039Z,96564.84
2022-11-15T18:44:25.732Z,96555.44
2022-11-15T18:46:52.460Z,96555.44
2022-11-15T18:49:20.508Z,96539.50
2022-11-15T18:51:47.803Z,96546.22
2022-11-15T18:54:15.777Z,96545.84
2022-11-15T18:56:46.914Z,96533.31
2022-11-15T18:59:14.668Z,96538.78
2022-11-15T19:01:43.916Z,96528.41
2022-11-15T19:04:17.686Z,96531.75
2022-11-15T19:06:46.532Z,96532.06
2022-11-15T19:09:16.196Z,96530.81
2022-11-15T19:11:44.680Z,96529.91
2022-11-15T19:14:13.339Z,96528.59
2022-11-15T19:16:42.146Z,96512.09
2022-11-15T19:19:13.386Z,96525.56
2022-11-15T19:21:40.481Z,96522.47
2022-11-15T19:24:07.564Z,96525.16
2022-11-15T19:26:36.890Z,96520.31
2022-11-15T19:29:04.561Z,96521.16
2022-11-15T19:31:34.354Z,96520.19
2022-11-15T19:34:04.689Z,96504.91
2022-11-15T19:36:42.379Z,96513.81
2022-11-15T19:39:12.908Z,96519.09
2022-11-15T19:41:42.482Z,96511.88
2022-11-15T19:44:10.475Z,96509.38
2022-11-15T19:46:38.302Z,96510.59
2022-11-15T19:49:07.125Z,96510.69
2022-11-15T19:51:36.705Z,96507.19
2022-11-15T19:54:06.778Z,96506.47
2022-11-15T19:56:34.440Z,96506.81
2022-11-15T19:59:01.450Z,96500.19
2022-11-15T20:01:33.720Z,96500.78
2022-11-15T20:04:00.478Z,96504.22
2022-11-15T20:06:39.741Z,96511.41
2022-11-15T20:09:06.416Z,96506.69
2022-11-15T20:11:34.220Z,96510.97
2022-11-15T20:14:05.037Z,96507.28
2022-11-15T20:16:34.040Z,96508.19
2022-11-15T20:19:00.684Z,96499.34
2022-11-15T20:21:27.577Z,96503.59
2022-11-15T20:23:55.417Z,96507.13
2022-11-15T20:26:22.503Z,96499.34
2022-11-15T20:28:49.282Z,96509.38
2022-11-15T20:31:16.683Z,96499.56
2022-11-15T20:33:43.379Z,96500.94
2022-11-15T20:36:15.682Z,96496.09
2022-11-15T20:38:43.520Z,96489.13
2022-11-15T20:41:12.071Z,96496.09
2022-11-15T20:43:39.208Z,96497.47
2022-11-15T20:46:06.222Z,96498.63
2022-11-15T20:48:33.156Z,96495.00
2022-11-15T20:51:19.690Z,96488.03
2022-11-15T20:53:51.256Z,96496.25
2022-11-15T20:56:20.087Z,96489.81
2022-11-15T20:58:47.443Z,96489.97
2022-11-15T21:01:15.496Z,96487.59
2022-11-15T21:03:42.535Z,96480.66
2022-11-15T21:06:10.372Z,96477.38
2022-11-15T21:08:55.446Z,96482.84
2022-11-15T21:11:40.896Z,96468.19
2022-11-15T21:14:09.524Z,96467.53
2022-11-15T21:16:37.295Z,96458.94
2022-11-15T21:19:06.674Z,96456.00
2022-11-15T21:21:38.819Z,96445.06
2022-11-15T21:24:11.690Z,96450.81
2022-11-15T21:26:40.670Z,96447.06
2022-11-15T21:29:17.415Z,96444.69
2022-11-15T21:31:47.537Z,96439.50
2022-11-15T21:34:14.761Z,96438.34
2022-11-15T21:36:41.747Z,96434.09
2022-11-15T21:39:08.347Z,96433.63
2022-11-15T21:41:35.299Z,96437.59
2022-11-15T21:44:03.918Z,96425.94
2022-11-15T21:46:31.655Z,96422.06
2022-11-15T21:49:00.695Z,96418.63
2022-11-15T21:51:27.379Z,96415.41
2022-11-15T21:53:56.777Z,96411.66
2022-11-15T21:56:25.624Z,96402.94
2022-11-15T21:58:53.575Z,96404.13
2022-11-15T22:01:42.571Z,96391.69
2022-11-15T22:04:09.427Z,96394.13
2022-11-15T22:06:36.581Z,96394.63
2022-11-15T22:09:04.973Z,96394.94
2022-11-15T22:11:34.403Z,96387.88
2022-11-15T22:14:01.131Z,96384.31
2022-11-15T22:16:27.709Z,96388.16
2022-11-15T22:18:55.009Z,96381.16
2022-11-15T22:21:21.842Z,96378.09
2022-11-15T22:23:50.991Z,96375.69
2022-11-15T22:26:23.508Z,96373.66
2022-11-15T22:28:50.963Z,96377.22
2022-11-15T22:31:19.756Z,96372.19
2022-11-15T22:33:46.405Z,96361.88
2022-11-15T22:36:13.497Z,96348.69
2022-11-15T22:38:40.480Z,96345.38
2022-11-15T22:41:07.387Z,96344.56
2022-11-15T22:43:34.275Z,96336.44
2022-11-15T22:46:04.655Z,96339.91
2022-11-15T22:48:37.353Z,96338.00
2022-11-15T22:51:05.517Z,96321.97
2022-11-15T22:53:32.520Z,96312.97
2022-11-15T22:56:01.219Z,96320.81
2022-11-15T22:58:31.510Z,96327.16
2022-11-15T23:01:00.838Z,96314.81
2022-11-15T23:03:28.757Z,96316.16
2022-11-15T23:06:00.481Z,96311.19
2022-11-15T23:08:27.063Z,96312.88
2022-11-15T23:11:13.623Z,96309.53
2022-11-15T23:13:40.274Z,96304.38
2022-11-15T23:16:48.170Z,96306.03
2022-11-15T23:19:14.766Z,96302.47
2022-11-15T23:22:02.660Z,96296.84
2022-11-15T23:24:30.872Z,96288.00
2022-11-15T23:27:03.606Z,96290.09
2022-11-15T23:29:30.737Z,96285.06
2022-11-15T23:32:15.986Z,96273.25
2022-11-15T23:34:48.854Z,96269.28
2022-11-15T23:37:15.788Z,96272.84
2022-11-15T23:39:42.424Z,96273.97
2022-11-15T23:42:09.769Z,96270.16
2022-11-15T23:44:36.789Z,96265.78
2022-11-15T23:47:03.736Z,96260.16
2022-11-15T23:49:30.403Z,96253.53
2022-11-15T23:51:57.032Z,96254.88
2022-11-15T23:54:25.919Z,96252.44
2022-11-15T23:56:52.519Z,96249.22
2022-11-15T23:59:19.101Z,96253.97
